sensor_id;sensor_type;location;lat;lon;timestamp;pressure;altitude;pressure_sealevel;temperature;humidity
60583;BME280;46415;47.536;19.066;2022-12-04T00:01:17;101217.50;;;3.19;100.00
60583;BME280;46415;47.536;19.066;2022-12-04T00:04:20;101225.22;;;3.21;100.00
60583;BME280;46415;47.536;19.066;2022-12-04T00:07:23;101219.22;;;3.20;100.00
60583;BME280;46415;47.536;19.066;2022-12-04T00:10:25;101215.78;;;3.24;100.00
60583;BME280;46415;47.536;19.066;2022-12-04T00:13:28;101213.22;;;3.24;100.00
60583;BME280;46415;47.536;19.066;2022-12-04T00:16:31;101220.06;;;3.22;100.00
60583;BME280;46415;47.536;19.066;2022-12-04T00:19:35;101218.34;;;3.17;100.00
60583;BME280;46415;47.536;19.066;2022-12-04T00:22:38;101223.50;;;3.12;100.00
60583;BME280;46415;47.536;19.066;2022-12-04T00:25:40;101219.22;;;3.10;100.00
60583;BME280;46415;47.536;19.066;2022-12-04T00:28:44;101221.78;;;3.07;100.00
60583;BME280;46415;47.536;19.066;2022-12-04T00:31:46;101220.06;;;3.03;100.00
60583;BME280;46415;47.536;19.066;2022-12-04T00:34:52;101229.47;;;2.95;100.00
60583;BME280;46415;47.536;19.066;2022-12-04T00:37:54;101233.72;;;2.86;100.00
60583;BME280;46415;47.536;19.066;2022-12-04T00:40:57;101230.28;;;2.81;100.00
60583;BME280;46415;47.536;19.066;2022-12-04T00:44:02;101229.44;;;2.81;100.00
60583;BME280;46415;47.536;19.066;2022-12-04T00:47:05;101226.91;;;2.85;100.00
60583;BME280;46415;47.536;19.066;2022-12-04T00:50:08;101221.75;;;2.87;100.00
60583;BME280;46415;47.536;19.066;2022-12-04T00:53:11;101216.63;;;2.88;100.00
60583;BME280;46415;47.536;19.066;2022-12-04T00:56:21;101213.22;;;2.83;100.00
60583;BME280;46415;47.536;19.066;2022-12-04T00:59:24;101220.88;;;2.80;100.00
60583;BME280;46415;47.536;19.066;2022-12-04T01:02:29;101216.63;;;2.79;100.00
60583;BME280;46415;47.536;19.066;2022-12-04T01:05:38;101220.03;;;2.78;100.00
60583;BME280;46415;47.536;19.066;2022-12-04T01:08:40;101212.34;;;2.72;100.00
60583;BME280;46415;47.536;19.066;2022-12-04T01:11:43;101218.31;;;2.70;100.00
60583;BME280;46415;47.536;19.066;2022-12-04T01:14:46;101213.16;;;2.68;100.00
60583;BME280;46415;47.536;19.066;2022-12-04T01:17:48;101220.88;;;2.71;100.00
60583;BME280;46415;47.536;19.066;2022-12-04T01:20:52;101213.19;;;2.71;100.00
60583;BME280;46415;47.536;19.066;2022-12-04T01:23:55;101214.06;;;2.78;100.00
60583;BME280;46415;47.536;19.066;2022-12-04T01:26:58;101215.78;;;2.79;100.00
60583;BME280;46415;47.536;19.066;2022-12-04T01:30:01;101223.47;;;2.86;100.00
60583;BME280;46415;47.536;19.066;2022-12-04T01:33:04;101220.91;;;2.99;100.00
60583;BME280;46415;47.536;19.066;2022-12-04T01:36:10;101221.75;;;3.16;100.00
60583;BME280;46415;47.536;19.066;2022-12-04T01:39:13;101215.78;;;3.37;100.00
60583;BME280;46415;47.536;19.066;2022-12-04T01:42:16;101216.63;;;3.61;100.00
60583;BME280;46415;47.536;19.066;2022-12-04T01:45:38;101218.31;;;3.65;100.00
60583;BME280;46415;47.536;19.066;2022-12-04T01:48:52;101214.03;;;3.72;100.00
60583;BME280;46415;47.536;19.066;2022-12-04T01:52:02;101219.97;;;3.83;100.00
60583;BME280;46415;47.536;19.066;2022-12-04T01:55:06;101219.97;;;3.85;100.00
60583;BME280;46415;47.536;19.066;2022-12-04T01:58:10;101223.37;;;3.99;100.00
60583;BME280;46415;47.536;19.066;2022-12-04T02:01:13;101219.91;;;4.06;100.00
60583;BME280;46415;47.536;19.066;2022-12-04T02:04:15;101219.03;;;4.05;100.00
60583;BME280;46415;47.536;19.066;2022-12-04T02:07:18;101207.94;;;4.11;100.00
60583;BME280;46415;47.536;19.066;2022-12-04T02:10:24;101206.22;;;4.10;100.00
60583;BME280;46415;47.536;19.066;2022-12-04T02:17:26;101201.16;;;3.78;100.00
60583;BME280;46415;47.536;19.066;2022-12-04T02:28:04;101198.66;;;3.49;100.00
60583;BME280;46415;47.536;19.066;2022-12-04T02:31:14;101208.94;;;3.29;100.00
60583;BME280;46415;47.536;19.066;2022-12-04T02:34:29;101206.37;;;3.36;100.00
60583;BME280;46415;47.536;19.066;2022-12-04T02:37:38;101201.25;;;3.16;100.00
60583;BME280;46415;47.536;19.066;2022-12-04T02:41:06;101201.28;;;3.08;100.00
60583;BME280;46415;47.536;19.066;2022-12-04T02:44:19;101192.72;;;2.96;100.00
60583;BME280;46415;47.536;19.066;2022-12-04T02:47:23;101202.97;;;3.02;100.00
60583;BME280;46415;47.536;19.066;2022-12-04T02:50:28;101213.22;;;2.96;100.00
60583;BME280;46415;47.536;19.066;2022-12-04T02:53:35;101196.97;;;2.89;100.00
60583;BME280;46415;47.536;19.066;2022-12-04T02:56:41;101202.94;;;2.93;100.00
60583;BME280;46415;47.536;19.066;2022-12-04T02:59:46;101212.38;;;2.94;100.00
60583;BME280;46415;47.536;19.066;2022-12-04T03:03:02;101197.81;;;2.86;100.00
60583;BME280;46415;47.536;19.066;2022-12-04T03:06:09;101202.97;;;2.97;100.00
60583;BME280;46415;47.536;19.066;2022-12-04T03:09:14;101196.16;;;2.92;100.00
60583;BME280;46415;47.536;19.066;2022-12-04T03:12:43;101192.72;;;2.83;100.00
60583;BME280;46415;47.536;19.066;2022-12-04T03:16:05;101200.41;;;2.73;100.00
60583;BME280;46415;47.536;19.066;2022-12-04T03:19:13;101196.94;;;2.65;100.00
60583;BME280;46415;47.536;19.066;2022-12-04T03:22:19;101187.56;;;2.56;100.00
60583;BME280;46415;47.536;19.066;2022-12-04T03:25:29;101196.91;;;2.45;100.00
60583;BME280;46415;47.536;19.066;2022-12-04T03:28:45;101199.41;;;2.33;100.00
60583;BME280;46415;47.536;19.066;2022-12-04T03:32:12;101192.56;;;2.27;100.00
60583;BME280;46415;47.536;19.066;2022-12-04T03:38:43;101195.09;;;2.17;100.00
60583;BME280;46415;47.536;19.066;2022-12-04T03:42:17;101200.25;;;2.18;100.00
60583;BME280;46415;47.536;19.066;2022-12-04T03:45:26;101195.16;;;2.26;100.00
60583;BME280;46415;47.536;19.066;2022-12-04T03:48:32;101185.72;;;2.14;100.00
60583;BME280;46415;47.536;19.066;2022-12-04T03:52:02;101195.09;;;2.11;100.00
60583;BME280;46415;47.536;19.066;2022-12-04T03:58:23;101201.06;;;2.16;100.00
60583;BME280;46415;47.536;19.066;2022-12-04T04:01:35;101205.34;;;2.21;100.00
60583;BME280;46415;47.536;19.066;2022-12-04T04:04:41;101199.44;;;2.34;100.00
60583;BME280;46415;47.536;19.066;2022-12-04T04:07:52;101204.59;;;2.48;100.00
60583;BME280;46415;47.536;19.066;2022-12-04T04:11:09;101202.91;;;2.50;100.00
60583;BME280;46415;47.536;19.066;2022-12-04T04:14:25;101208.03;;;2.44;100.00
60583;BME280;46415;47.536;19.066;2022-12-04T04:18:02;101203.72;;;2.44;100.00
60583;BME280;46415;47.536;19.066;2022-12-04T04:21:28;101197.78;;;2.44;100.00
60583;BME280;46415;47.536;19.066;2022-12-04T04:24:55;101199.50;;;2.69;100.00
60583;BME280;46415;47.536;19.066;2022-12-04T04:27:59;101209.75;;;2.69;100.00
60583;BME280;46415;47.536;19.066;2022-12-04T04:34:47;101200.41;;;2.73;100.00
60583;BME280;46415;47.536;19.066;2022-12-04T04:41:21;101210.66;;;2.73;100.00
60583;BME280;46415;47.536;19.066;2022-12-04T04:44:33;101206.37;;;2.73;100.00
60583;BME280;46415;47.536;19.066;2022-12-04T04:47:50;101214.06;;;2.76;100.00
60583;BME280;46415;47.536;19.066;2022-12-04T04:50:55;101205.50;;;2.80;100.00
60583;BME280;46415;47.536;19.066;2022-12-04T04:54:03;101205.53;;;2.91;100.00
60583;BME280;46415;47.536;19.066;2022-12-04T04:57:08;101208.06;;;2.86;100.00
60583;BME280;46415;47.536;19.066;2022-12-04T05:00:14;101205.53;;;2.85;100.00
60583;BME280;46415;47.536;19.066;2022-12-04T05:03:18;101208.94;;;2.87;100.00
60583;BME280;46415;47.536;19.066;2022-12-04T05:06:20;101208.94;;;2.90;100.00
60583;BME280;46415;47.536;19.066;2022-12-04T05:09:24;101211.53;;;2.92;100.00
60583;BME280;46415;47.536;19.066;2022-12-04T05:12:27;101211.53;;;2.98;100.00
60583;BME280;46415;47.536;19.066;2022-12-04T05:15:30;101202.97;;;3.05;100.00
60583;BME280;46415;47.536;19.066;2022-12-04T05:18:34;101198.72;;;3.04;100.00
60583;BME280;46415;47.536;19.066;2022-12-04T05:21:37;101196.16;;;3.02;100.00
60583;BME280;46415;47.536;19.066;2022-12-04T05:24:39;101193.56;;;3.01;100.00
60583;BME280;46415;47.536;19.066;2022-12-04T05:27:42;101199.53;;;3.00;100.00
60583;BME280;46415;47.536;19.066;2022-12-04T05:30:44;101202.97;;;3.05;100.00
60583;BME280;46415;47.536;19.066;2022-12-04T05:33:47;101200.41;;;3.05;100.00
60583;BME280;46415;47.536;19.066;2022-12-04T05:36:51;101196.97;;;3.00;100.00
60583;BME280;46415;47.536;19.066;2022-12-04T05:39:54;101202.09;;;2.98;100.00
60583;BME280;46415;47.536;19.066;2022-12-04T05:42:57;101208.09;;;2.90;100.00
60583;BME280;46415;47.536;19.066;2022-12-04T05:46:04;101197.00;;;2.80;100.00
60583;BME280;46415;47.536;19.066;2022-12-04T05:49:07;101195.25;;;2.80;100.00
60583;BME280;46415;47.536;19.066;2022-12-04T05:52:10;101192.69;;;2.77;100.00
60583;BME280;46415;47.536;19.066;2022-12-04T05:55:13;101194.41;;;2.74;100.00
60583;BME280;46415;47.536;19.066;2022-12-04T05:58:16;101196.09;;;2.70;100.00
60583;BME280;46415;47.536;19.066;2022-12-04T06:01:21;101200.34;;;2.64;100.00
60583;BME280;46415;47.536;19.066;2022-12-04T06:04:24;101206.34;;;2.60;100.00
60583;BME280;46415;47.536;19.066;2022-12-04T06:07:27;101214.00;;;2.54;100.00
60583;BME280;46415;47.536;19.066;2022-12-04T06:10:30;101210.56;;;2.45;100.00
60583;BME280;46415;47.536;19.066;2022-12-04T06:13:32;101205.47;;;2.49;100.00
60583;BME280;46415;47.536;19.066;2022-12-04T06:16:38;101208.03;;;2.49;100.00
60583;BME280;46415;47.536;19.066;2022-12-04T06:19:41;101204.53;;;2.33;100.00
60583;BME280;46415;47.536;19.066;2022-12-04T06:22:44;101213.91;;;2.23;100.00
60583;BME280;46415;47.536;19.066;2022-12-04T06:25:46;101213.03;;;2.14;100.00
60583;BME280;46415;47.536;19.066;2022-12-04T06:28:52;101224.09;;;2.08;100.00
60583;BME280;46415;47.536;19.066;2022-12-04T06:31:55;101221.50;;;2.00;100.00
60583;BME280;46415;47.536;19.066;2022-12-04T06:34:58;101224.06;;;2.03;100.00
60583;BME280;46415;47.536;19.066;2022-12-04T06:38:00;101219.91;;;2.25;100.00
60583;BME280;46415;47.536;19.066;2022-12-04T06:41:06;101216.47;;;2.28;100.00
60583;BME280;46415;47.536;19.066;2022-12-04T06:44:10;101225.06;;;2.39;100.00
60583;BME280;46415;47.536;19.066;2022-12-04T06:47:12;101225.03;;;2.30;100.00
60583;BME280;46415;47.536;19.066;2022-12-04T06:50:15;101222.50;;;2.31;100.00
60583;BME280;46415;47.536;19.066;2022-12-04T06:53:20;101226.75;;;2.31;100.00
60583;BME280;46415;47.536;19.066;2022-12-04T06:56:25;101218.25;;;2.38;100.00
60583;BME280;46415;47.536;19.066;2022-12-04T06:59:28;101213.94;;;2.34;100.00
60583;BME280;46415;47.536;19.066;2022-12-04T07:02:30;101214.81;;;2.39;100.00
60583;BME280;46415;47.536;19.066;2022-12-04T07:05:33;101202.87;;;2.47;100.00
60583;BME280;46415;47.536;19.066;2022-12-04T07:08:36;101218.25;;;2.52;100.00
60583;BME280;46415;47.536;19.066;2022-12-04T07:11:40;101216.56;;;2.51;100.00
60583;BME280;46415;47.536;19.066;2022-12-04T07:14:43;101210.59;;;2.55;100.00
60583;BME280;46415;47.536;19.066;2022-12-04T07:17:46;101216.59;;;2.55;100.00
60583;BME280;46415;47.536;19.066;2022-12-04T07:20:48;101225.12;;;2.56;100.00
60583;BME280;46415;47.536;19.066;2022-12-04T07:23:53;101220.84;;;2.55;100.00
60583;BME280;46415;47.536;19.066;2022-12-04T07:26:56;101230.22;;;2.57;100.00
60583;BME280;46415;47.536;19.066;2022-12-04T07:29:59;101232.81;;;2.60;100.00
60583;BME280;46415;47.536;19.066;2022-12-04T07:33:02;101224.28;;;2.69;100.00
60583;BME280;46415;47.536;19.066;2022-12-04T07:36:07;101221.72;;;2.69;100.00
60583;BME280;46415;47.536;19.066;2022-12-04T07:39:10;101224.31;;;2.73;100.00
60583;BME280;46415;47.536;19.066;2022-12-04T07:42:12;101223.47;;;2.93;100.00
60583;BME280;46415;47.536;19.066;2022-12-04T07:45:15;101217.50;;;2.91;100.00
60583;BME280;46415;47.536;19.066;2022-12-04T07:48:18;101214.94;;;3.00;100.00
60583;BME280;46415;47.536;19.066;2022-12-04T07:51:23;101218.38;;;3.08;100.00
60583;BME280;46415;47.536;19.066;2022-12-04T07:54:28;101220.06;;;3.16;100.00
60583;BME280;46415;47.536;19.066;2022-12-04T07:57:30;101226.91;;;3.25;100.00
60583;BME280;46415;47.536;19.066;2022-12-04T08:00:33;101225.19;;;3.32;100.00
60583;BME280;46415;47.536;19.066;2022-12-04T08:03:36;101225.22;;;3.39;100.00
60583;BME280;46415;47.536;19.066;2022-12-04T08:06:46;101219.19;;;3.48;100.00
60583;BME280;46415;47.536;19.066;2022-12-04T08:09:49;101215.75;;;3.58;100.00
60583;BME280;46415;47.536;19.066;2022-12-04T08:12:51;101213.19;;;3.59;100.00
60583;BME280;46415;47.536;19.066;2022-12-04T08:15:54;101202.06;;;3.59;100.00
60583;BME280;46415;47.536;19.066;2022-12-04T08:18:58;101214.91;;;3.57;100.00
60583;BME280;46415;47.536;19.066;2022-12-04T08:22:01;101220.91;;;3.50;100.00
60583;BME280;46415;47.536;19.066;2022-12-04T08:25:04;101234.59;;;3.42;100.00
60583;BME280;46415;47.536;19.066;2022-12-04T08:28:07;101225.19;;;3.45;100.00
60583;BME280;46415;47.536;19.066;2022-12-04T08:31:12;101213.22;;;3.56;100.00
60583;BME280;46415;47.536;19.066;2022-12-04T08:34:16;101211.47;;;3.61;100.00
60583;BME280;46415;47.536;19.066;2022-12-04T08:37:19;101207.19;;;3.68;100.00
60583;BME280;46415;47.536;19.066;2022-12-04T08:40:25;101208.88;;;3.77;100.00
60583;BME280;46415;47.536;19.066;2022-12-04T08:43:28;101212.28;;;3.86;100.00
60583;BME280;46415;47.536;19.066;2022-12-04T08:46:31;101216.47;;;4.05;100.00
60583;BME280;46415;47.536;19.066;2022-12-04T08:49:34;101210.44;;;4.22;100.00
60583;BME280;46415;47.536;19.066;2022-12-04T08:52:37;101209.53;;;4.33;100.00
60583;BME280;46415;47.536;19.066;2022-12-04T08:55:42;101223.16;;;4.47;100.00
60583;BME280;46415;47.536;19.066;2022-12-04T08:58:45;101213.66;;;4.60;100.00
60583;BME280;46415;47.536;19.066;2022-12-04T09:01:49;101223.00;;;4.75;100.00
60583;BME280;46415;47.536;19.066;2022-12-04T09:04:53;101225.41;;;4.99;100.00
60583;BME280;46415;47.536;19.066;2022-12-04T09:07:56;101221.97;;;5.00;100.00
60583;BME280;46415;47.536;19.066;2022-12-04T09:11:19;101222.81;;;5.05;100.00
60583;BME280;46415;47.536;19.066;2022-12-04T09:14:23;101220.09;;;5.20;100.00
60583;BME280;46415;47.536;19.066;2022-12-04T09:17:28;101219.19;;;5.27;100.00
60583;BME280;46415;47.536;19.066;2022-12-04T09:20:30;101213.13;;;5.31;100.00
60583;BME280;46415;47.536;19.066;2022-12-04T09:23:34;101206.22;;;5.40;100.00
60583;BME280;46415;47.536;19.066;2022-12-04T09:26:37;101204.31;;;5.55;100.00
60583;BME280;46415;47.536;19.066;2022-12-04T09:29:40;101209.28;;;5.72;100.00
60583;BME280;46415;47.536;19.066;2022-12-04T09:32:43;101213.53;;;5.79;100.00
60583;BME280;46415;47.536;19.066;2022-12-04T09:35:46;101198.84;;;5.90;100.00
60583;BME280;46415;47.536;19.066;2022-12-04T09:38:50;101201.44;;;5.86;100.00
60583;BME280;46415;47.536;19.066;2022-12-04T09:45:16;101191.00;;;5.99;100.00
60583;BME280;46415;47.536;19.066;2022-12-04T09:48:21;101186.56;;;6.12;100.00
60583;BME280;46415;47.536;19.066;2022-12-04T09:51:29;101186.44;;;6.21;100.00
60583;BME280;46415;47.536;19.066;2022-12-04T09:54:37;101177.75;;;6.30;100.00
60583;BME280;46415;47.536;19.066;2022-12-04T09:57:44;101175.91;;;6.38;100.00
60583;BME280;46415;47.536;19.066;2022-12-04T10:00:50;101164.88;;;6.28;100.00
60583;BME280;46415;47.536;19.066;2022-12-04T10:03:53;101168.38;;;6.24;100.00
60583;BME280;46415;47.536;19.066;2022-12-04T10:07:13;101161.41;;;6.31;100.00
60583;BME280;46415;47.536;19.066;2022-12-04T10:10:19;101158.69;;;6.40;100.00
60583;BME280;46415;47.536;19.066;2022-12-04T10:13:47;101151.03;;;6.34;100.00
60583;BME280;46415;47.536;19.066;2022-12-04T10:17:30;101137.12;;;6.45;100.00
60583;BME280;46415;47.536;19.066;2022-12-04T10:20:52;101141.47;;;6.43;100.00
60583;BME280;46415;47.536;19.066;2022-12-04T10:24:22;101135.19;;;6.61;100.00
60583;BME280;46415;47.536;19.066;2022-12-04T10:27:38;101133.97;;;6.82;100.00
60583;BME280;46415;47.536;19.066;2022-12-04T10:30:44;101131.19;;;6.95;100.00
60583;BME280;46415;47.536;19.066;2022-12-04T10:34:02;101125.72;;;7.12;100.00
60583;BME280;46415;47.536;19.066;2022-12-04T10:37:12;101120.25;;;7.29;100.00
60583;BME280;46415;47.536;19.066;2022-12-04T10:40:21;101112.28;;;7.43;100.00
60583;BME280;46415;47.536;19.066;2022-12-04T10:43:40;101116.28;;;7.57;100.00
60583;BME280;46415;47.536;19.066;2022-12-04T10:46:44;101104.25;;;7.56;100.00
60583;BME280;46415;47.536;19.066;2022-12-04T10:49:59;101101.37;;;7.70;99.48
60583;BME280;46415;47.536;19.066;2022-12-04T10:53:03;101104.66;;;7.79;97.89
60583;BME280;46415;47.536;19.066;2022-12-04T10:56:14;101093.63;;;7.70;97.51
60583;BME280;46415;47.536;19.066;2022-12-04T10:59:19;101096.00;;;7.80;96.42
60583;BME280;46415;47.536;19.066;2022-12-04T11:02:26;101087.72;;;7.65;97.78
60583;BME280;46415;47.536;19.066;2022-12-04T11:06:00;101079.44;;;7.91;96.72
60583;BME280;46415;47.536;19.066;2022-12-04T11:09:03;101081.66;;;8.07;95.41
60583;BME280;46415;47.536;19.066;2022-12-04T11:12:14;101072.06;;;8.11;95.64
60583;BME280;46415;47.536;19.066;2022-12-04T11:15:18;101068.56;;;8.15;94.34
60583;BME280;46415;47.536;19.066;2022-12-04T11:21:29;101064.37;;;8.46;92.99
60583;BME280;46415;47.536;19.066;2022-12-04T11:24:35;101059.22;;;8.46;92.62
60583;BME280;46415;47.536;19.066;2022-12-04T11:27:39;101051.81;;;8.31;93.00
60583;BME280;46415;47.536;19.066;2022-12-04T11:30:46;101041.47;;;8.33;92.91
60583;BME280;46415;47.536;19.066;2022-12-04T11:36:55;101049.66;;;8.50;92.26
60583;BME280;46415;47.536;19.066;2022-12-04T11:39:59;101041.31;;;8.39;92.47
60583;BME280;46415;47.536;19.066;2022-12-04T11:43:12;101038.75;;;8.37;91.68
60583;BME280;46415;47.536;19.066;2022-12-04T11:46:21;101044.78;;;8.38;92.31
60583;BME280;46415;47.536;19.066;2022-12-04T11:49:25;101032.41;;;8.50;91.93
60583;BME280;46415;47.536;19.066;2022-12-04T11:53:04;101030.31;;;8.65;91.70
60583;BME280;46415;47.536;19.066;2022-12-04T12:12:18;100995.66;;;8.36;91.43
60583;BME280;46415;47.536;19.066;2022-12-04T12:25:44;101007.84;;;8.67;90.05
60583;BME280;46415;47.536;19.066;2022-12-04T12:35:34;101005.22;;;8.68;90.59
60583;BME280;46415;47.536;19.066;2022-12-04T12:38:48;101010.56;;;8.60;91.14
60583;BME280;46415;47.536;19.066;2022-12-04T12:41:55;101006.63;;;8.80;90.45
60583;BME280;46415;47.536;19.066;2022-12-04T12:45:26;101014.25;;;8.86;89.75
60583;BME280;46415;47.536;19.066;2022-12-04T12:48:48;101008.09;;;8.90;90.52
60583;BME280;46415;47.536;19.066;2022-12-04T12:52:33;101006.47;;;8.86;89.44
60583;BME280;46415;47.536;19.066;2022-12-04T12:55:44;100997.19;;;8.77;89.88
60583;BME280;46415;47.536;19.066;2022-12-04T12:58:53;101002.94;;;8.88;89.50
60583;BME280;46415;47.536;19.066;2022-12-04T13:02:03;101000.47;;;8.84;88.86
60583;BME280;46415;47.536;19.066;2022-12-04T13:05:10;100993.88;;;8.72;89.51
60583;BME280;46415;47.536;19.066;2022-12-04T13:08:26;100990.91;;;8.87;89.12
60583;BME280;46415;47.536;19.066;2022-12-04T13:11:31;100988.81;;;9.00;88.20
60583;BME280;46415;47.536;19.066;2022-12-04T13:14:34;100985.63;;;9.23;87.29
60583;BME280;46415;47.536;19.066;2022-12-04T13:17:38;100992.69;;;9.16;87.58
60583;BME280;46415;47.536;19.066;2022-12-04T13:20:51;100989.72;;;8.99;88.46
60583;BME280;46415;47.536;19.066;2022-12-04T13:28:13;100993.06;;;9.02;88.70
60583;BME280;46415;47.536;19.066;2022-12-04T13:35:12;100996.16;;;8.84;89.74
60583;BME280;46415;47.536;19.066;2022-12-04T13:42:02;101010.97;;;8.45;92.16
60583;BME280;46415;47.536;19.066;2022-12-04T13:45:09;101006.37;;;8.21;93.31
60583;BME280;46415;47.536;19.066;2022-12-04T13:48:32;101005.66;;;8.14;93.94
60583;BME280;46415;47.536;19.066;2022-12-04T13:51:40;101006.56;;;8.12;94.90
60583;BME280;46415;47.536;19.066;2022-12-04T13:54:58;101008.28;;;8.11;95.30
60583;BME280;46415;47.536;19.066;2022-12-04T13:58:02;100999.69;;;8.11;95.66
60583;BME280;46415;47.536;19.066;2022-12-04T14:01:22;101001.69;;;8.00;96.50
60583;BME280;46415;47.536;19.066;2022-12-04T14:04:45;101005.12;;;7.99;96.31
60583;BME280;46415;47.536;19.066;2022-12-04T14:08:02;101012.00;;;8.00;96.01
60583;BME280;46415;47.536;19.066;2022-12-04T14:11:15;101026.94;;;7.87;96.86
60583;BME280;46415;47.536;19.066;2022-12-04T14:14:43;101021.84;;;7.84;97.55
60583;BME280;46415;47.536;19.066;2022-12-04T14:17:58;101020.72;;;7.96;97.22
60583;BME280;46415;47.536;19.066;2022-12-04T14:21:04;101030.50;;;7.82;98.21
60583;BME280;46415;47.536;19.066;2022-12-04T14:24:36;101031.38;;;7.80;98.89
60583;BME280;46415;47.536;19.066;2022-12-04T14:34:19;101019.78;;;7.61;100.00
60583;BME280;46415;47.536;19.066;2022-12-04T14:37:33;101026.56;;;7.65;100.00
60583;BME280;46415;47.536;19.066;2022-12-04T14:40:45;101023.37;;;7.54;100.00
60583;BME280;46415;47.536;19.066;2022-12-04T14:43:50;101017.25;;;7.57;100.00
60583;BME280;46415;47.536;19.066;2022-12-04T14:46:54;101020.56;;;7.63;100.00
60583;BME280;46415;47.536;19.066;2022-12-04T14:53:49;101017.63;;;7.40;100.00
60583;BME280;46415;47.536;19.066;2022-12-04T14:57:16;101020.31;;;7.35;100.00
60583;BME280;46415;47.536;19.066;2022-12-04T15:00:22;101015.03;;;7.40;100.00
60583;BME280;46415;47.536;19.066;2022-12-04T15:03:40;101026.31;;;7.36;100.00
60583;BME280;46415;47.536;19.066;2022-12-04T15:06:46;101030.00;;;7.24;100.00
60583;BME280;46415;47.536;19.066;2022-12-04T15:09:56;101031.81;;;7.21;100.00
60583;BME280;46415;47.536;19.066;2022-12-04T15:13:38;101028.44;;;7.16;100.00
60583;BME280;46415;47.536;19.066;2022-12-04T15:16:40;101030.59;;;7.37;100.00
60583;BME280;46415;47.536;19.066;2022-12-04T15:19:44;101040.87;;;7.40;100.00
60583;BME280;46415;47.536;19.066;2022-12-04T15:22:49;101034.81;;;7.41;100.00
60583;BME280;46415;47.536;19.066;2022-12-04T15:25:53;101034.22;;;7.27;100.00
60583;BME280;46415;47.536;19.066;2022-12-04T15:29:00;101029.22;;;7.21;100.00
60583;BME280;46415;47.536;19.066;2022-12-04T15:32:07;101031.09;;;7.11;100.00
60583;BME280;46415;47.536;19.066;2022-12-04T15:35:18;101031.97;;;7.10;100.00
60583;BME280;46415;47.536;19.066;2022-12-04T15:38:21;101034.63;;;7.09;100.00
60583;BME280;46415;47.536;19.066;2022-12-04T15:41:32;101030.09;;;7.20;100.00
60583;BME280;46415;47.536;19.066;2022-12-04T15:44:35;101030.34;;;7.06;100.00
60583;BME280;46415;47.536;19.066;2022-12-04T15:50:54;101040.81;;;6.98;100.00
60583;BME280;46415;47.536;19.066;2022-12-04T15:53:57;101040.72;;;7.03;100.00
60583;BME280;46415;47.536;19.066;2022-12-04T15:57:03;101038.09;;;7.05;100.00
60583;BME280;46415;47.536;19.066;2022-12-04T16:00:26;101040.03;;;6.93;100.00
60583;BME280;46415;47.536;19.066;2022-12-04T16:03:44;101038.34;;;6.92;100.00
60583;BME280;46415;47.536;19.066;2022-12-04T16:06:49;101038.97;;;7.04;100.00
60583;BME280;46415;47.536;19.066;2022-12-04T16:09:59;101036.59;;;6.94;100.00
60583;BME280;46415;47.536;19.066;2022-12-04T16:13:05;101040.91;;;6.94;100.00
60583;BME280;46415;47.536;19.066;2022-12-04T16:16:14;101036.47;;;7.02;100.00
60583;BME280;46415;47.536;19.066;2022-12-04T16:19:21;101031.50;;;6.90;100.00
60583;BME280;46415;47.536;19.066;2022-12-04T16:22:25;101033.16;;;6.92;100.00
60583;BME280;46415;47.536;19.066;2022-12-04T16:25:28;101035.72;;;6.95;100.00
60583;BME280;46415;47.536;19.066;2022-12-04T16:28:34;101032.41;;;6.87;100.00
60583;BME280;46415;47.536;19.066;2022-12-04T16:31:36;101042.94;;;6.77;100.00
60583;BME280;46415;47.536;19.066;2022-12-04T16:34:40;101032.69;;;6.72;100.00
60583;BME280;46415;47.536;19.066;2022-12-04T16:37:42;101036.13;;;6.73;100.00
60583;BME280;46415;47.536;19.066;2022-12-04T16:40:45;101041.13;;;6.82;100.00
60583;BME280;46415;47.536;19.066;2022-12-04T16:43:54;101040.44;;;6.72;100.00
60583;BME280;46415;47.536;19.066;2022-12-04T16:46:57;101037.03;;;6.69;100.00
60583;BME280;46415;47.536;19.066;2022-12-04T16:50:00;101038.66;;;6.74;100.00
60583;BME280;46415;47.536;19.066;2022-12-04T16:53:03;101040.44;;;6.72;100.00
60583;BME280;46415;47.536;19.066;2022-12-04T16:56:07;101040.31;;;6.78;100.00
60583;BME280;46415;47.536;19.066;2022-12-04T16:59:10;101042.84;;;6.80;100.00
60583;BME280;46415;47.536;19.066;2022-12-04T17:02:21;101040.37;;;6.75;100.00
60583;BME280;46415;47.536;19.066;2022-12-04T17:05:28;101044.53;;;6.82;100.00
60583;BME280;46415;47.536;19.066;2022-12-04T17:08:31;101036.94;;;6.75;100.00
60583;BME280;46415;47.536;19.066;2022-12-04T17:11:34;101036.03;;;6.77;100.00
60583;BME280;46415;47.536;19.066;2022-12-04T17:14:37;101036.13;;;6.73;100.00
60583;BME280;46415;47.536;19.066;2022-12-04T17:17:40;101039.66;;;6.67;100.00
60583;BME280;46415;47.536;19.066;2022-12-04T17:20:43;101043.00;;;6.72;100.00
60583;BME280;46415;47.536;19.066;2022-12-04T17:23:49;101043.03;;;6.71;100.00
60583;BME280;46415;47.536;19.066;2022-12-04T17:26:51;101045.69;;;6.66;100.00
60583;BME280;46415;47.536;19.066;2022-12-04T17:29:54;101053.44;;;6.66;100.00
60583;BME280;46415;47.536;19.066;2022-12-04T17:32:57;101052.50;;;6.69;100.00
60583;BME280;46415;47.536;19.066;2022-12-04T17:36:00;101058.50;;;6.71;100.00
60583;BME280;46415;47.536;19.066;2022-12-04T17:39:04;101052.47;;;6.73;100.00
60583;BME280;46415;47.536;19.066;2022-12-04T17:42:09;101059.81;;;6.93;100.00